Maramec, Oklahoma
Current Conditions -  °F | °C
As of 4:35 PM on Wednesday 22 Oct 2014 (Local Time) from KCUH Reporting Station
Clear Clear  
Wind Chill: 77°   Ceiling: Unl
Heat Index: 79°   Visibility: 10mi
Dew Point: 63°   Wind: 10mph
Humidity: 61%   Direction: 200°SSW
Pressure: 30.08"   Gusts: 16mph
Location:  36.24°N, 96.68°W
Report Text: KCUH 222135Z AUTO 20009G14KT 10SM CLR 25/17 A3008 RMK AO2
Loading
Personal Weather Stations






























Interactive Weather Map
Tropical Storm Tracking
New forecast layout! Learn more

10-Day Weather Forecast

Advertisements
Track Severe Weather on mobile